This is the latest recevied weather packets stored in our database for station/object DO1BDB-12. If no packets are shown the sender has not sent any weather packets the latest 10 day(s).
| Time | Temp. | Humidity | Pressure | Rain* | Wind** | Luminosity | Snow |
|---|---|---|---|---|---|---|---|
| 1777527009 | 16.67° C | 41% | 103.3 hPa | - | - | - | - |
| 1777526943 | 15.56° C | 42% | 103.3 hPa | - | - | - | - |
| 1777526877 | 14.44° C | 44% | 103.3 hPa | - | - | - | - |
| 1777526811 | 15.56° C | 41% | 103.3 hPa | - | - | - | - |
| 1777526745 | 16.67° C | 40% | 103.3 hPa | - | - | - | - |
| 1777526679 | 17.78° C | 40% | 103.3 hPa | - | - | - | - |
| 1777526613 | 16.11° C | 41% | 103.3 hPa | - | - | - | - |
| 1777526548 | 15° C | 43% | 103.3 hPa | - | - | - | - |
| 1777526482 | 15° C | 45% | 103.3 hPa | - | - | - | - |
| 1777526416 | 13.89° C | 49% | 103.3 hPa | - | - | - | - |
| 1777526350 | 12.22° C | 51% | 103.3 hPa | - | - | - | - |
| 1777526284 | 11.67° C | 52% | 103.3 hPa | - | - | - | - |
| 1777526218 | 11.67° C | 55% | 103.3 hPa | - | - | - | - |
| 1777526152 | 10° C | 58% | 103.3 hPa | - | - | - | - |
| 1777526087 | 9.44° C | 59% | 103.3 hPa | - | - | - | - |
| 1777526021 | 8.33° C | 62% | 103.3 hPa | - | - | - | - |
| 1777525955 | 7.78° C | 65% | 103.3 hPa | - | - | - | - |
| 1777525889 | 6.67° C | 67% | 103.3 hPa | - | - | - | - |
| 1777525823 | 6.11° C | 67% | 103.3 hPa | - | - | - | - |
| 1777525758 | 6.67° C | 67% | 103.3 hPa | - | - | - | - |
| 1777525692 | 6.67° C | 67% | 103.3 hPa | - | - | - | - |
| 1777525626 | 6.11° C | 69% | 103.3 hPa | - | - | - | - |
| 1777525560 | 5° C | 71% | 103.3 hPa | - | - | - | - |
| 1777525494 | 5.56° C | 70% | 103.3 hPa | - | - | - | - |
| 1777525428 | 6.67° C | 68% | 103.3 hPa | - | - | - | - |
* Rain since midnight (hover to see other rain measurements)
** Current wind speed in m/s (hover to see current wind gust speed)